Time;durP1;ratioP1;P1;durP2;ratioP2;P2;SDS_P1;SDS_P2;PMS_P1;PMS_P2;Temp;Humidity;BMP_temperature;BMP_pressure;BME280_temperature;BME280_humidity;BME280_pressure;Samples;Min_cycle;Max_cycle;Signal;HPM_P1;HPM_P2
2021/08/10 00:02:09;;;;;;;5.90;1.93;;;;;;;13.75;84.93;96514.16;5059967;28;20055;-77
2021/08/10 00:04:34;;;;;;;4.50;2.10;;;;;;;13.73;84.84;96510.88;5065360;28;20164;-76
2021/08/10 00:07:00;;;;;;;3.47;1.60;;;;;;;13.75;84.98;96511.50;5053383;28;20048;-76
2021/08/10 00:09:26;;;;;;;4.10;1.90;;;;;;;13.72;84.69;96512.72;5072680;28;20062;-76
2021/08/10 00:11:52;;;;;;;9.77;2.20;;;;;;;13.54;85.53;96504.19;5063802;28;20123;-76
2021/08/10 00:14:17;;;;;;;6.60;2.40;;;;;;;13.47;85.90;96506.69;5063031;28;20094;-77
2021/08/10 00:16:43;;;;;;;5.07;2.10;;;;;;;13.55;86.12;96505.84;5057555;28;20043;-77
2021/08/10 00:19:09;;;;;;;5.57;2.23;;;;;;;13.49;86.03;96507.34;5068855;28;20021;-76
2021/08/10 00:21:35;;;;;;;5.37;1.87;;;;;;;13.58;85.41;96506.31;5063092;28;20040;-76
2021/08/10 00:24:01;;;;;;;6.07;1.80;;;;;;;13.59;85.12;96505.31;5083897;28;20043;-77
2021/08/10 00:26:27;;;;;;;5.37;2.10;;;;;;;13.72;84.15;96514.53;5055778;28;20560;-76
2021/08/10 00:28:53;;;;;;;4.77;1.80;;;;;;;13.70;83.41;96509.41;5072168;28;20016;-75
2021/08/10 00:31:19;;;;;;;3.93;1.87;;;;;;;13.71;83.67;96513.69;5074442;28;20124;-77
2021/08/10 00:33:45;;;;;;;3.67;1.77;;;;;;;13.64;83.76;96515.38;5067950;28;20032;-75
2021/08/10 00:36:12;;;;;;;6.43;2.23;;;;;;;13.62;83.98;96512.09;5078231;28;20035;-76
2021/08/10 00:38:39;;;;;;;5.73;2.87;;;;;;;13.50;84.93;96516.91;5059874;28;20040;-76
2021/08/10 00:41:05;;;;;;;3.77;2.17;;;;;;;13.47;84.95;96519.06;5055261;28;20477;-76
2021/08/10 00:43:36;;;;;;;6.50;2.03;;;;;;;13.40;85.75;96514.47;5064266;28;20112;-76
2021/08/10 00:46:12;;;;;;;7.27;2.40;;;;;;;13.29;87.21;96511.38;5068429;28;20028;-76
2021/08/10 00:48:39;;;;;;;4.97;1.90;;;;;;;13.31;86.82;96507.56;5092705;28;20632;-77
2021/08/10 00:51:07;;;;;;;5.27;2.20;;;;;;;13.17;87.88;96510.84;5064471;28;20020;-76
2021/08/10 00:53:35;;;;;;;4.17;1.80;;;;;;;13.00;88.43;96511.88;5058921;28;20056;-76
2021/08/10 00:56:05;;;;;;;6.20;2.10;;;;;;;12.92;89.26;96505.63;5055717;28;20029;-76
2021/08/10 00:58:34;;;;;;;5.17;2.10;;;;;;;13.01;89.00;96508.25;5054302;28;20036;-76
2021/08/10 01:01:01;;;;;;;6.37;1.97;;;;;;;12.94;89.21;96506.28;5069737;28;20052;-78
2021/08/10 01:03:28;;;;;;;6.00;2.20;;;;;;;13.01;88.50;96503.81;5064964;28;20120;-76
2021/08/10 01:05:54;;;;;;;7.40;2.30;;;;;;;12.90;89.38;96512.06;5072368;28;20502;-76
2021/08/10 01:08:48;;;;;;;7.00;2.30;;;;;;;12.91;88.88;96504.00;5068199;28;20043;-75
2021/08/10 01:11:38;;;;;;;4.07;1.93;;;;;;;12.95;88.91;96505.28;5057824;28;20428;-75
2021/08/10 01:14:19;;;;;;;5.57;1.90;;;;;;;12.93;88.48;96504.63;5077336;28;20032;-76
2021/08/10 01:17:12;;;;;;;4.33;1.90;;;;;;;12.94;88.52;96498.38;5065039;28;20035;-76
2021/08/10 01:20:10;;;;;;;4.27;1.50;;;;;;;12.80;89.63;96500.84;5056773;28;20043;-76
2021/08/10 01:22:44;;;;;;;5.47;1.97;;;;;;;12.78;89.79;96497.56;5065442;28;20040;-76
2021/08/10 01:25:42;;;;;;;6.83;2.60;;;;;;;12.74;89.57;96491.78;5053724;28;20033;-76
2021/08/10 01:28:25;;;;;;;4.17;1.83;;;;;;;12.69;90.16;96499.38;5080282;28;20035;-76
2021/08/10 01:31:06;;;;;;;4.23;2.17;;;;;;;12.72;89.43;96494.59;5066412;28;20028;-76
2021/08/10 01:33:39;;;;;;;3.87;1.80;;;;;;;12.68;89.70;96493.28;5052608;28;20032;-76
2021/08/10 01:36:09;;;;;;;2.83;1.50;;;;;;;12.71;89.67;96492.97;5075685;28;20039;-76
2021/08/10 01:38:42;;;;;;;5.60;2.25;;;;;;;12.64;90.26;96502.53;5077157;28;20472;-76
2021/08/10 01:41:11;;;;;;;8.33;2.40;;;;;;;12.56;90.92;96499.06;5080599;28;20087;-78
2021/08/10 01:43:40;;;;;;;4.97;2.30;;;;;;;12.56;91.29;96494.59;5061213;28;20071;-76
2021/08/10 01:46:07;;;;;;;4.57;2.07;;;;;;;12.65;90.29;96493.63;5054045;28;20036;-76
2021/08/10 01:48:36;;;;;;;4.53;2.30;;;;;;;12.50;90.84;96493.44;5076613;28;20040;-77
2021/08/10 01:51:06;;;;;;;5.90;2.53;;;;;;;12.49;90.88;96486.50;5065759;28;20125;-77
2021/08/10 01:53:33;;;;;;;6.43;2.27;;;;;;;12.39;91.66;96482.41;5072855;28;20065;-79
2021/08/10 01:56:00;;;;;;;4.93;2.00;;;;;;;12.37;92.49;96490.47;5077969;28;20051;-75
2021/08/10 01:58:36;;;;;;;4.20;1.93;;;;;;;12.32;92.08;96482.22;5069762;28;20060;-76
2021/08/10 02:01:02;;;;;;;6.30;1.80;;;;;;;12.40;91.96;96486.69;5074382;28;20119;-76
2021/08/10 02:03:30;;;;;;;5.07;1.80;;;;;;;12.33;92.19;96480.41;5060420;28;20811;-79
2021/08/10 02:06:06;;;;;;;6.03;2.20;;;;;;;12.29;92.37;96487.00;5052950;28;20516;-76
2021/08/10 02:08:36;;;;;;;4.90;2.40;;;;;;;12.28;92.72;96475.66;5062213;28;20036;-78
2021/08/10 02:11:04;;;;;;;5.97;2.30;;;;;;;12.29;92.37;96485.19;5049791;28;20082;-76
2021/08/10 02:13:33;;;;;;;6.90;2.30;;;;;;;12.40;92.05;96484.03;5060343;28;20020;-76
2021/08/10 02:16:01;;;;;;;6.57;2.03;;;;;;;12.41;91.91;96477.78;5077492;28;20039;-77
2021/08/10 02:18:28;;;;;;;4.73;2.10;;;;;;;12.37;92.10;96479.91;5056160;28;20078;-76
2021/08/10 02:21:08;;;;;;;6.53;1.90;;;;;;;12.47;91.23;96467.41;5067231;28;20028;-77
2021/08/10 02:23:37;;;;;;;6.77;2.17;;;;;;;12.50;90.72;96471.50;5052440;28;20032;-78
2021/08/10 02:26:05;;;;;;;6.67;2.70;;;;;;;12.43;91.15;96473.97;5058455;28;20028;-77
2021/08/10 02:28:33;;;;;;;4.67;2.67;;;;;;;12.36;91.76;96472.19;5049570;28;20067;-76
2021/08/10 02:31:02;;;;;;;6.13;2.50;;;;;;;12.31;92.14;96472.69;5055089;28;20389;-79
2021/08/10 02:33:36;;;;;;;6.33;2.30;;;;;;;12.23;92.79;96470.03;5071374;28;20111;-78
2021/08/10 02:36:03;;;;;;;6.93;2.30;;;;;;;12.15;93.38;96478.75;5054095;28;20032;-76
2021/08/10 02:38:35;;;;;;;5.60;2.67;;;;;;;12.14;93.69;96477.13;5069600;28;20119;-78
2021/08/10 02:41:01;;;;;;;7.50;2.37;;;;;;;12.13;93.55;96475.44;5057444;28;20485;-76
2021/08/10 02:43:32;;;;;;;4.47;2.10;;;;;;;12.08;93.74;96477.75;5081698;28;20374;-77
2021/08/10 02:46:00;;;;;;;8.07;2.20;;;;;;;12.11;93.82;96473.97;5070044;28;20067;-76
2021/08/10 02:48:32;;;;;;;6.97;2.37;;;;;;;12.12;93.81;96459.81;5067075;28;20032;-77
2021/08/10 02:51:00;;;;;;;5.13;2.10;;;;;;;12.01;94.83;96458.31;5071574;28;20020;-76
2021/08/10 02:53:26;;;;;;;5.27;2.13;;;;;;;12.06;95.17;96460.44;5050392;28;20111;-76
2021/08/10 02:56:12;;;;;;;4.87;2.43;;;;;;;12.00;95.12;96461.91;5053798;28;20029;-76
2021/08/10 02:58:51;;;;;;;6.17;2.10;;;;;;;12.01;95.29;96453.03;5049633;28;20033;-76
2021/08/10 03:01:24;;;;;;;5.93;2.40;;;;;;;12.03;95.23;96457.13;5033977;28;20041;-77
2021/08/10 03:03:54;;;;;;;6.90;2.57;;;;;;;12.03;95.52;96451.88;5051265;28;20097;-76
2021/08/10 03:06:22;;;;;;;6.73;3.27;;;;;;;12.09;95.54;96458.31;5078712;28;20493;-76
2021/08/10 03:08:53;;;;;;;7.80;2.83;;;;;;;12.19;95.21;96451.06;5069106;28;20020;-76
2021/08/10 03:11:21;;;;;;;6.60;3.00;;;;;;;12.15;94.51;96451.56;5055104;28;20699;-76
2021/08/10 03:13:49;;;;;;;5.00;2.67;;;;;;;12.10;95.17;96454.69;5075155;28;20107;-76
2021/08/10 03:16:16;;;;;;;12.73;2.60;;;;;;;11.95;96.03;96465.03;5074786;28;20043;-76
2021/08/10 03:18:46;;;;;;;4.63;2.47;;;;;;;12.08;95.47;96464.59;5052470;28;20025;-76
2021/08/10 03:21:14;;;;;;;5.53;2.07;;;;;;;12.22;94.82;96455.19;5057492;28;20053;-77
2021/08/10 03:23:41;;;;;;;6.50;2.60;;;;;;;12.17;94.85;96460.97;5053418;28;20727;-76
2021/08/10 03:26:09;;;;;;;4.53;1.93;;;;;;;12.15;94.99;96465.56;5051422;28;20415;-77
2021/08/10 03:28:41;;;;;;;3.43;2.00;;;;;;;12.11;95.29;96458.16;5053149;28;20071;-77
2021/08/10 03:31:11;;;;;;;4.00;2.33;;;;;;;12.08;95.47;96469.84;5034994;28;20125;-75
2021/08/10 03:33:40;;;;;;;4.47;2.37;;;;;;;12.09;95.14;96465.41;5068590;28;20117;-77
2021/08/10 03:36:07;;;;;;;5.63;2.40;;;;;;;12.07;95.52;96468.19;5051753;28;20028;-76
2021/08/10 03:38:35;;;;;;;4.77;2.17;;;;;;;12.10;95.30;96475.78;5068348;28;20050;-76
2021/08/10 03:41:02;;;;;;;7.63;2.33;;;;;;;12.17;94.84;96468.88;5053913;28;20074;-76
2021/08/10 03:43:30;;;;;;;7.20;2.93;;;;;;;12.20;94.50;96468.53;5064741;28;20454;-76
2021/08/10 03:45:57;;;;;;;7.83;2.47;;;;;;;12.32;93.42;96471.69;5048747;28;20025;-75
2021/08/10 03:48:23;;;;;;;5.83;2.50;;;;;;;12.43;92.68;96471.34;5051881;28;20063;-76
2021/08/10 03:50:54;;;;;;;6.80;2.60;;;;;;;12.46;92.64;96463.09;5060188;28;20642;-78
2021/08/10 03:53:21;;;;;;;5.43;2.10;;;;;;;12.46;92.77;96468.38;5060145;28;20036;-78
2021/08/10 03:55:50;;;;;;;4.33;2.37;;;;;;;12.36;93.54;96467.72;5054844;28;20693;-75
2021/08/10 03:58:27;;;;;;;3.97;2.30;;;;;;;12.38;93.67;96462.28;5064850;28;20124;-77
2021/08/10 04:00:55;;;;;;;5.47;2.20;;;;;;;12.33;94.03;96462.78;5091376;28;20028;-76
2021/08/10 04:03:22;;;;;;;6.83;2.37;;;;;;;12.25;94.27;96450.41;5058400;28;20036;-81
2021/08/10 04:05:51;;;;;;;7.20;2.00;;;;;;;12.20;94.98;96457.16;5041438;28;20059;-75
2021/08/10 04:08:18;;;;;;;6.40;2.10;;;;;;;12.24;94.46;96458.50;5036536;28;20037;-77
2021/08/10 04:10:46;;;;;;;6.83;2.57;;;;;;;12.26;94.55;96451.25;5063728;28;20742;-76
2021/08/10 04:13:19;;;;;;;5.97;2.47;;;;;;;12.22;94.50;96447.28;5075529;28;20043;-76
2021/08/10 04:15:49;;;;;;;4.67;2.40;;;;;;;12.23;94.90;96451.56;5073749;28;20524;-76
2021/08/10 04:18:18;;;;;;;9.17;2.30;;;;;;;12.24;94.48;96447.97;5057260;28;20681;-78
2021/08/10 04:20:46;;;;;;;6.90;2.20;;;;;;;12.23;94.64;96451.56;5081805;28;20028;-75
2021/08/10 04:23:13;;;;;;;7.00;2.40;;;;;;;12.19;95.22;96455.53;5072200;28;20036;-76
2021/08/10 04:25:39;;;;;;;4.63;2.40;;;;;;;12.27;94.88;96458.16;5052624;28;20095;-76
2021/08/10 04:28:07;;;;;;;6.17;2.27;;;;;;;12.33;94.68;96462.78;5074221;28;20074;-76
2021/08/10 04:30:34;;;;;;;4.90;2.47;;;;;;;12.38;94.47;96464.94;5076218;28;20036;-78
2021/08/10 04:32:59;;;;;;;4.87;2.27;;;;;;;12.53;93.56;96460.63;5055405;28;20064;-76
2021/08/10 04:35:25;;;;;;;6.20;2.63;;;;;;;12.63;92.57;96468.38;5054775;28;20032;-76
2021/08/10 04:37:52;;;;;;;3.40;2.07;;;;;;;12.71;91.76;96466.56;5055614;28;20020;-75
2021/08/10 04:40:18;;;;;;;5.43;2.17;;;;;;;12.75;91.39;96469.69;5054576;28;20033;-76
2021/08/10 04:43:04;;;;;;;3.33;1.90;;;;;;;12.86;91.22;96466.69;5058425;28;20032;-77
2021/08/10 04:45:31;;;;;;;5.10;2.20;;;;;;;12.91;91.33;96463.53;5064331;28;20127;-77
2021/08/10 04:47:57;;;;;;;5.60;2.83;;;;;;;12.92;91.75;96467.84;5068413;28;20024;-76
2021/08/10 04:50:23;;;;;;;6.30;2.40;;;;;;;12.88;92.30;96466.53;5054302;28;20299;-77
2021/08/10 04:52:51;;;;;;;5.37;2.67;;;;;;;12.87;92.28;96465.69;5054729;28;20060;-77
2021/08/10 04:55:19;;;;;;;5.60;2.50;;;;;;;13.05;91.03;96468.16;5055078;28;20033;-76
2021/08/10 04:57:46;;;;;;;6.63;2.67;;;;;;;13.10;91.04;96467.63;5071723;28;20115;-76
2021/08/10 05:00:12;;;;;;;4.90;2.43;;;;;;;13.20;90.47;96473.56;5070897;28;20174;-77
2021/08/10 05:02:40;;;;;;;4.00;1.83;;;;;;;13.33;89.70;96473.06;5071504;28;20020;-77
2021/08/10 05:05:07;;;;;;;5.20;2.40;;;;;;;13.39;88.88;96470.56;5051918;28;20067;-76
2021/08/10 05:07:35;;;;;;;6.03;2.33;;;;;;;13.54;88.71;96483.03;5050837;28;20671;-76
2021/08/10 05:10:04;;;;;;;5.33;2.40;;;;;;;13.58;88.10;96479.91;5052646;28;20399;-78
2021/08/10 05:12:31;;;;;;;6.17;2.90;;;;;;;13.72;89.61;96475.69;5069889;28;20033;-76
2021/08/10 05:14:57;;;;;;;5.00;2.50;;;;;;;13.75;90.51;96485.94;5075528;28;20028;-75
2021/08/10 05:17:26;;;;;;;4.87;1.80;;;;;;;13.78;91.01;96490.03;5071090;28;20032;-76
2021/08/10 05:19:53;;;;;;;4.70;2.20;;;;;;;13.85;91.06;96491.84;5071817;28;20029;-76
2021/08/10 05:22:20;;;;;;;5.27;2.33;;;;;;;13.91;90.64;96492.94;5091736;28;20028;-75
2021/08/10 05:24:48;;;;;;;5.53;2.33;;;;;;;13.96;90.71;96493.25;5054562;28;20064;-78
2021/08/10 05:27:14;;;;;;;5.50;2.70;;;;;;;13.87;91.35;96484.53;5071461;28;20131;-81
2021/08/10 05:29:41;;;;;;;5.87;2.20;;;;;;;13.54;94.04;96488.31;5048523;28;20008;-76
2021/08/10 05:32:07;;;;;;;6.10;2.30;;;;;;;13.58;95.67;96481.69;5055636;28;20068;-76
2021/08/10 05:34:33;;;;;;;4.37;2.17;;;;;;;13.73;94.56;96490.56;5059599;28;20037;-80
2021/08/10 05:36:59;;;;;;;4.87;2.20;;;;;;;13.91;94.12;96488.47;5096222;28;20071;-77
2021/08/10 05:39:25;;;;;;;13.10;7.67;;;;;;;14.03;93.37;96490.75;5073638;28;20016;-76
2021/08/10 05:41:53;;;;;;;6.20;2.90;;;;;;;14.08;92.95;96486.59;5058102;28;20071;-76
2021/08/10 05:44:19;;;;;;;6.83;2.80;;;;;;;14.04;93.29;96489.72;5065496;28;20396;-76
2021/08/10 05:46:47;;;;;;;4.80;2.50;;;;;;;14.09;93.87;96495.34;5063744;28;20444;-78
2021/08/10 05:49:17;;;;;;;5.77;2.40;;;;;;;14.22;93.10;96486.78;5051228;28;20044;-76
2021/08/10 05:51:44;;;;;;;6.17;2.87;;;;;;;14.28;92.74;96488.75;5059893;28;20040;-76
2021/08/10 05:54:13;;;;;;;7.50;2.93;;;;;;;14.48;90.77;96486.44;5048969;28;20090;-76
2021/08/10 05:56:43;;;;;;;8.63;2.80;;;;;;;14.73;89.00;96485.28;5054402;28;20035;-75
2021/08/10 05:59:09;;;;;;;4.77;2.47;;;;;;;14.90;88.67;96485.97;5070934;28;20036;-76
2021/08/10 06:01:37;;;;;;;4.43;2.50;;;;;;;14.78;91.28;96488.22;5056815;28;20019;-77
2021/08/10 06:04:06;;;;;;;4.60;1.80;;;;;;;14.74;90.72;96492.22;5054766;28;20107;-76
2021/08/10 06:06:34;;;;;;;7.10;2.90;;;;;;;14.79;90.33;96492.53;5067206;28;20044;-78
2021/08/10 06:09:04;;;;;;;5.17;2.50;;;;;;;14.68;92.03;96495.56;5069879;28;20103;-76
2021/08/10 06:11:32;;;;;;;4.90;2.20;;;;;;;14.69;92.08;96494.59;5049281;28;20024;-76
2021/08/10 06:13:58;;;;;;;6.87;2.53;;;;;;;14.97;91.06;96496.66;5050010;28;20371;-76
2021/08/10 06:16:24;;;;;;;4.37;2.20;;;;;;;15.22;89.57;96499.88;5052848;28;20063;-75
2021/08/10 06:18:53;;;;;;;7.93;3.27;;;;;;;15.39;88.09;96501.38;5064215;28;20032;-76
2021/08/10 06:21:23;;;;;;;11.20;7.07;;;;;;;15.51;88.38;96509.66;5061391;28;20033;-76
2021/08/10 06:23:49;;;;;;;5.73;3.13;;;;;;;15.43;87.85;96501.81;5056714;28;20786;-76
2021/08/10 06:26:15;;;;;;;6.83;2.30;;;;;;;15.35;86.60;96505.38;5071012;28;20021;-76
2021/08/10 06:28:45;;;;;;;4.57;2.30;;;;;;;15.20;89.40;96501.91;5053948;28;20124;-76
2021/08/10 06:31:11;;;;;;;7.77;2.10;;;;;;;15.32;89.18;96497.78;5068857;28;20081;-77
2021/08/10 06:33:37;;;;;;;5.73;2.10;;;;;;;15.42;88.93;96497.50;5071851;28;20032;-79
2021/08/10 06:36:06;;;;;;;7.83;2.37;;;;;;;15.65;88.04;96516.78;5051669;28;20053;-76
2021/08/10 06:38:33;;;;;;;6.13;2.87;;;;;;;15.63;87.60;96510.88;5075084;28;20390;-76
2021/08/10 06:41:01;;;;;;;3.87;2.20;;;;;;;15.71;86.80;96516.09;5064641;28;20094;-76
2021/08/10 06:43:27;;;;;;;5.27;2.57;;;;;;;15.82;86.51;96527.22;5060143;28;20033;-76
2021/08/10 06:46:13;;;;;;;3.53;2.20;;;;;;;16.07;85.87;96512.66;5080519;28;20255;-77
2021/08/10 06:48:39;;;;;;;5.97;2.10;;;;;;;16.13;85.34;96517.22;5052670;28;20037;-76
2021/08/10 06:51:05;;;;;;;7.47;3.42;;;;;;;16.10;83.42;96504.31;5051223;28;20024;-76
2021/08/10 06:53:30;;;;;;;6.53;2.30;;;;;;;16.24;81.35;96498.16;5068904;28;20071;-76
2021/08/10 06:55:56;;;;;;;5.38;2.25;;;;;;;16.48;80.44;96496.13;5069031;28;20037;-76
2021/08/10 06:58:23;;;;;;;4.28;2.40;;;;;;;16.67;79.64;96495.50;5068807;28;20032;-77
2021/08/10 07:00:49;;;;;;;6.05;3.28;;;;;;;16.87;78.64;96505.50;5066907;28;20032;-76
2021/08/10 07:03:15;;;;;;;5.90;2.65;;;;;;;16.86;77.58;96511.81;5059373;28;20068;-76
2021/08/10 07:05:41;;;;;;;3.85;2.10;;;;;;;16.98;76.77;96518.25;5052303;28;20055;-76
2021/08/10 07:08:07;;;;;;;6.80;3.08;;;;;;;16.75;77.72;96515.81;5051962;28;20018;-76
2021/08/10 07:10:38;;;;;;;6.65;2.65;;;;;;;16.89;77.59;96508.78;5068699;28;20043;-76
2021/08/10 07:13:04;;;;;;;7.40;3.08;;;;;;;17.32;75.87;96506.03;5052317;28;20032;-77
2021/08/10 07:15:33;;;;;;;6.13;2.50;;;;;;;17.76;73.55;96499.53;5052118;28;20040;-77
2021/08/10 07:18:04;;;;;;;8.00;2.55;;;;;;;17.47;74.43;96495.28;5064982;28;20025;-78
2021/08/10 07:20:31;;;;;;;6.20;2.75;;;;;;;18.56;71.54;96487.28;5069114;28;20497;-76
2021/08/10 07:22:57;;;;;;;5.65;2.33;;;;;;;19.44;68.51;96489.75;5061705;28;20090;-76
2021/08/10 07:25:30;;;;;;;;;;;;;;;19.70;66.76;96494.22;5063863;28;20482;-76
2021/08/10 07:27:58;;;;;;;5.00;2.10;;;;;;;19.44;67.88;96498.56;5064628;28;19913;-77
2021/08/10 07:30:24;;;;;;;3.70;2.00;;;;;;;20.41;63.21;96488.75;5050969;28;20033;-76
2021/08/10 07:32:56;;;;;;;5.38;2.10;;;;;;;20.42;61.58;96485.06;5059203;28;20028;-76
2021/08/10 07:35:23;;;;;;;4.28;1.95;;;;;;;19.95;63.21;96497.00;5066950;28;20028;-76
2021/08/10 07:37:49;;;;;;;4.60;1.80;;;;;;;20.95;59.66;96486.56;5083623;28;20024;-76
2021/08/10 07:40:15;;;;;;;5.68;2.70;;;;;;;21.35;58.29;96484.38;5091022;28;20043;-77
2021/08/10 07:42:43;;;;;;;4.28;2.05;;;;;;;21.09;59.48;96485.41;5080021;28;20029;-77
2021/08/10 07:45:09;;;;;;;5.13;1.73;;;;;;;21.13;59.44;96472.44;5065189;28;20020;-77
2021/08/10 07:47:36;;;;;;;3.97;2.08;;;;;;;21.16;57.85;96459.44;5075900;28;20029;-76
2021/08/10 07:50:03;;;;;;;7.47;2.10;;;;;;;21.07;56.25;96454.59;5073991;28;20013;-77
2021/08/10 07:52:29;;;;;;;5.28;2.00;;;;;;;20.88;56.52;96453.72;5083799;28;20385;-75
2021/08/10 07:54:55;;;;;;;5.60;1.90;;;;;;;20.19;58.03;96456.22;5073219;28;20029;-76
2021/08/10 07:57:21;;;;;;;3.72;1.73;;;;;;;20.82;57.84;96462.59;5071272;28;20072;-76
2021/08/10 07:59:46;;;;;;;4.07;1.90;;;;;;;20.93;58.42;96465.41;5071254;28;20032;-76
2021/08/10 08:02:26;;;;;;;6.30;2.13;;;;;;;20.80;57.47;96470.84;5074281;28;20119;-76
2021/08/10 08:04:52;;;;;;;3.55;1.80;;;;;;;21.22;56.83;96464.91;5070423;28;20036;-78
2021/08/10 08:07:17;;;;;;;5.35;1.73;;;;;;;21.84;55.72;96474.56;5075290;28;20409;-76
2021/08/10 08:09:43;;;;;;;5.97;2.03;;;;;;;21.81;55.41;96467.00;5076276;28;20035;-77
2021/08/10 08:12:09;;;;;;;4.28;1.98;;;;;;;21.63;55.56;96470.50;5074736;28;20055;-76
2021/08/10 08:14:36;;;;;;;5.47;1.85;;;;;;;21.12;56.90;96465.41;5071915;28;20067;-76
2021/08/10 08:17:02;;;;;;;4.63;2.30;;;;;;;21.20;55.99;96465.16;5054230;28;20052;-76
2021/08/10 08:19:29;;;;;;;6.00;1.80;;;;;;;21.86;56.43;96456.44;5064575;28;20546;-76
2021/08/10 08:21:56;;;;;;;5.70;2.75;;;;;;;21.99;55.47;96451.94;5052136;28;20111;-76
2021/08/10 08:24:22;;;;;;;4.72;1.90;;;;;;;21.46;54.94;96449.88;5063082;28;20116;-76
2021/08/10 08:26:48;;;;;;;4.25;1.80;;;;;;;21.04;55.69;96455.03;5055030;28;20036;-76
2021/08/10 08:29:14;;;;;;;5.35;1.70;;;;;;;21.13;56.15;96451.84;5066521;28;20039;-77
2021/08/10 08:31:40;;;;;;;4.70;2.30;;;;;;;21.39;55.79;96448.13;5050525;28;20025;-79
2021/08/10 08:34:06;;;;;;;3.83;1.63;;;;;;;21.47;56.05;96444.31;5049889;28;20024;-77
2021/08/10 08:36:32;;;;;;;4.25;2.10;;;;;;;21.41;56.00;96443.34;5064726;28;20028;-78
2021/08/10 08:38:58;;;;;;;5.78;2.40;;;;;;;21.56;54.74;96444.84;5070354;28;20093;-77
2021/08/10 08:41:26;;;;;;;8.35;1.90;;;;;;;21.72;54.59;96441.56;5078471;28;20100;-77
2021/08/10 08:43:52;;;;;;;3.92;1.80;;;;;;;22.53;53.48;96442.94;5068501;28;20422;-78
2021/08/10 08:46:22;;;;;;;3.95;1.73;;;;;;;21.97;54.03;96433.44;5066518;28;20064;-77
2021/08/10 08:48:48;;;;;;;6.50;1.80;;;;;;;22.03;54.79;96437.88;5067285;28;20024;-78
2021/08/10 08:51:23;;;;;;;7.30;2.38;;;;;;;21.99;53.94;96435.88;5070997;28;20036;-77
2021/08/10 08:53:55;;;;;;;4.50;2.33;;;;;;;21.42;55.78;96430.78;5051860;28;20442;-78
2021/08/10 08:56:26;;;;;;;7.70;1.92;;;;;;;21.71;54.27;96439.13;5069236;28;20039;-78
2021/08/10 08:58:55;;;;;;;3.90;1.70;;;;;;;21.96;52.82;96447.84;5052882;28;20029;-77
2021/08/10 09:01:23;;;;;;;4.78;2.03;;;;;;;22.30;52.70;96443.72;5069396;28;20039;-77
2021/08/10 09:03:49;;;;;;;6.53;2.33;;;;;;;22.94;51.69;96437.81;5065544;28;20027;-77
2021/08/10 09:06:17;;;;;;;5.03;1.65;;;;;;;23.65;52.91;96433.22;5050042;28;20032;-77
2021/08/10 09:08:43;;;;;;;3.65;1.75;;;;;;;23.27;51.45;96430.00;5064433;28;20032;-77
2021/08/10 09:11:19;;;;;;;4.78;1.98;;;;;;;22.96;52.26;96430.34;5069900;28;20052;-77
2021/08/10 09:14:01;;;;;;;2.30;1.50;;;;;;;22.49;52.47;96436.41;5047030;28;20036;-77
2021/08/10 09:16:33;;;;;;;5.53;1.75;;;;;;;22.64;53.08;96446.72;5064158;28;20028;-77
2021/08/10 09:18:59;;;;;;;5.60;2.40;;;;;;;22.56;53.33;96441.69;5048825;28;20033;-77
2021/08/10 09:21:26;;;;;;;4.65;2.10;;;;;;;22.93;51.15;96444.22;5068866;28;20037;-77
2021/08/10 09:24:11;;;;;;;4.55;2.03;;;;;;;23.29;51.45;96446.66;5065668;28;20044;-77
2021/08/10 09:26:39;;;;;;;4.47;1.77;;;;;;;23.12;52.62;96440.38;5049250;28;20037;-77
2021/08/10 09:29:10;;;;;;;5.93;1.80;;;;;;;23.30;52.22;96437.56;5058785;28;20059;-77
2021/08/10 09:31:39;;;;;;;6.10;4.03;;;;;;;24.23;51.06;96437.59;5045004;28;20119;-77
2021/08/10 09:34:19;;;;;;;8.38;5.25;;;;;;;24.20;50.75;96440.75;5068775;28;20059;-77
2021/08/10 09:36:46;;;;;;;7.78;2.67;;;;;;;25.06;48.76;96437.94;5069179;28;20086;-76
2021/08/10 09:39:12;;;;;;;4.60;1.77;;;;;;;24.99;49.01;96435.41;5065813;28;20097;-77
2021/08/10 09:41:39;;;;;;;3.83;1.83;;;;;;;24.62;48.33;96443.16;5069797;28;20034;-77
2021/08/10 09:44:10;;;;;;;5.60;2.20;;;;;;;24.62;47.57;96452.03;5045983;28;21626;-76
2021/08/10 09:46:38;;;;;;;4.45;2.03;;;;;;;24.46;49.36;96450.13;5051436;28;20100;-77
2021/08/10 09:49:09;;;;;;;5.35;2.15;;;;;;;24.63;48.88;96447.47;5047827;28;20416;-73
2021/08/10 09:51:42;;;;;;;5.18;2.30;;;;;;;24.80;46.76;96453.66;5050300;28;20024;-76
2021/08/10 09:54:11;;;;;;;5.38;1.85;;;;;;;24.20;49.24;96446.13;5065709;28;20071;-77
2021/08/10 09:57:03;;;;;;;4.03;1.95;;;;;;;25.05;47.69;96437.13;5062068;28;20028;-76
2021/08/10 09:59:41;;;;;;;4.70;2.22;;;;;;;24.81;46.98;96451.78;5066974;28;20032;-81
2021/08/10 10:02:23;;;;;;;5.43;2.05;;;;;;;24.79;47.97;96462.00;5064650;28;20062;-80
2021/08/10 10:04:57;;;;;;;5.43;2.28;;;;;;;24.81;48.22;96459.84;5061823;28;20028;-80
2021/08/10 10:07:24;;;;;;;4.60;2.20;;;;;;;24.75;46.90;96466.22;5047401;28;20564;-81
2021/08/10 10:09:57;;;;;;;5.28;2.08;;;;;;;25.05;45.98;96447.91;5066965;28;20453;-79
2021/08/10 10:12:29;;;;;;;3.53;1.67;;;;;;;25.00;46.07;96461.25;5055380;28;20039;-80
2021/08/10 10:15:00;;;;;;;4.95;2.25;;;;;;;24.95;45.97;96455.81;5051677;28;20037;-80
2021/08/10 10:17:32;;;;;;;5.80;2.38;;;;;;;25.42;45.88;96438.47;5052551;28;20048;-80
2021/08/10 10:19:58;;;;;;;9.50;4.78;;;;;;;25.97;43.73;96449.19;5056115;28;20051;-80
2021/08/10 10:22:27;;;;;;;7.72;3.35;;;;;;;25.25;44.49;96441.19;5071467;28;20020;-80
2021/08/10 10:24:57;;;;;;;6.53;3.67;;;;;;;26.00;44.16;96445.19;5056581;28;20410;-79
2021/08/10 10:27:24;;;;;;;3.67;1.80;;;;;;;26.06;42.08;96442.28;5055361;28;20114;-81
2021/08/10 10:29:54;;;;;;;6.05;2.58;;;;;;;27.18;41.96;96436.31;5058717;28;20032;-79
2021/08/10 10:32:21;;;;;;;5.28;2.10;;;;;;;27.10;40.93;96436.78;5066358;28;20448;-75
2021/08/10 10:34:48;;;;;;;3.90;2.13;;;;;;;27.15;42.39;96432.25;5069493;28;20033;-77
2021/08/10 10:37:25;;;;;;;6.93;3.60;;;;;;;26.75;42.35;96438.13;5079061;28;20025;-77
2021/08/10 10:39:58;;;;;;;4.40;2.35;;;;;;;26.73;41.88;96435.69;5058733;28;20036;-80
2021/08/10 10:42:28;;;;;;;10.75;7.43;;;;;;;26.30;41.26;96431.22;5042509;28;20035;-81
2021/08/10 10:44:54;;;;;;;3.38;1.60;;;;;;;25.38;43.47;96432.75;5072200;28;20036;-80
2021/08/10 10:47:20;;;;;;;5.68;2.35;;;;;;;24.80;44.38;96450.16;5069329;28;20063;-80
2021/08/10 10:49:47;;;;;;;7.30;3.13;;;;;;;24.94;45.00;96438.00;5049178;28;20028;-80
2021/08/10 10:52:17;;;;;;;4.07;1.80;;;;;;;25.68;44.46;96428.84;5059211;28;20032;-80
2021/08/10 10:54:44;;;;;;;2.97;1.65;;;;;;;25.91;43.05;96438.59;5083286;28;20029;-80
2021/08/10 10:57:30;;;;;;;4.03;2.08;;;;;;;25.47;43.90;96435.84;5073699;28;20100;-80
2021/08/10 11:00:21;;;;;;;3.10;1.58;;;;;;;25.33;44.38;96430.84;5099982;28;20032;-80
2021/08/10 11:03:12;;;;;;;3.20;1.65;;;;;;;26.35;42.92;96428.56;5089996;28;20127;-81
2021/08/10 11:05:38;;;;;;;3.60;1.38;;;;;;;25.51;42.17;96435.09;5050757;28;20032;-80
2021/08/10 11:08:06;;;;;;;3.45;1.50;;;;;;;25.58;43.05;96440.31;5037631;28;20498;-79
2021/08/10 11:10:48;;;;;;;3.70;1.63;;;;;;;25.92;42.09;96430.25;5037938;28;20079;-80
2021/08/10 11:13:16;;;;;;;4.25;1.40;;;;;;;25.53;41.16;96433.00;5053504;28;20041;-80
2021/08/10 11:15:45;;;;;;;3.85;1.60;;;;;;;25.11;43.07;96430.78;5069294;28;20033;-80
2021/08/10 11:18:11;;;;;;;5.05;1.65;;;;;;;24.74;43.83;96433.13;5069586;28;20045;-80
2021/08/10 11:20:40;;;;;;;3.58;1.55;;;;;;;24.89;42.59;96428.00;5075207;28;20025;-80
2021/08/10 11:23:19;;;;;;;6.95;1.73;;;;;;;24.61;43.58;96431.56;5058961;28;20058;-80
2021/08/10 11:25:49;;;;;;;4.15;1.60;;;;;;;24.62;44.15;96433.22;5073110;28;20028;-78
2021/08/10 11:28:28;;;;;;;4.03;1.63;;;;;;;24.51;44.31;96431.38;5075607;28;20028;-80
2021/08/10 11:31:03;;;;;;;5.15;1.65;;;;;;;25.08;43.30;96428.56;5066766;28;20041;-79
2021/08/10 11:33:38;;;;;;;4.03;1.88;;;;;;;25.83;42.64;96426.38;5079235;28;20032;-81
2021/08/10 11:36:12;;;;;;;4.10;1.63;;;;;;;26.21;41.24;96424.66;5095280;28;20104;-80
2021/08/10 11:38:44;;;;;;;6.10;1.73;;;;;;;26.26;42.32;96422.03;5057919;28;20328;-78
2021/08/10 11:41:11;;;;;;;4.05;1.42;;;;;;;26.26;41.73;96419.31;5050927;28;20047;-80
2021/08/10 11:43:42;;;;;;;2.95;1.50;;;;;;;26.03;42.00;96426.63;5054996;28;20036;-80
2021/08/10 11:46:20;;;;;;;5.40;1.90;;;;;;;26.19;40.99;96432.16;5062341;28;20165;-80